createdAt,value
2023-03-07T05:00:38.565Z,73.11
2023-03-07T05:01:38.511Z,72.80
2023-03-07T05:02:45.476Z,72.90
2023-03-07T05:03:38.413Z,72.90
2023-03-07T05:04:38.524Z,73.00
2023-03-07T05:05:38.417Z,73.11
2023-03-07T05:06:38.572Z,73.11
2023-03-07T05:07:38.362Z,72.76
2023-03-07T05:08:38.373Z,72.97
2023-03-07T05:09:38.358Z,73.07
2023-03-07T05:10:38.358Z,73.07
2023-03-07T05:11:38.327Z,73.07
2023-03-07T05:12:38.411Z,72.76
2023-03-07T05:13:42.264Z,72.66
2023-03-07T05:14:38.299Z,72.66
2023-03-07T05:15:48.707Z,72.66
2023-03-07T05:16:39.924Z,72.66
2023-03-07T05:17:38.756Z,72.66
2023-03-07T05:18:39.878Z,72.45
2023-03-07T05:19:39.912Z,72.42
2023-03-07T05:20:40.219Z,72.31
2023-03-07T05:21:38.712Z,72.00
2023-03-07T05:22:39.715Z,71.80
2023-03-07T05:23:39.646Z,71.48
2023-03-07T05:24:39.605Z,71.48
2023-03-07T05:25:38.864Z,71.48
2023-03-07T05:26:39.701Z,71.59
2023-03-07T05:27:39.760Z,71.48
2023-03-07T05:28:39.016Z,71.48
2023-03-07T05:29:39.585Z,71.59
2023-03-07T05:30:39.246Z,71.48
2023-03-07T05:31:39.648Z,71.38
2023-03-07T05:32:38.981Z,71.38
2023-03-07T05:33:42.219Z,71.38
2023-03-07T05:34:40.237Z,71.38
2023-03-07T05:35:39.346Z,71.48
2023-03-07T05:36:38.846Z,71.59
2023-03-07T05:37:39.837Z,71.48
2023-03-07T05:38:46.221Z,71.69
2023-03-07T05:39:40.353Z,72.03
2023-03-07T05:40:38.664Z,72.03
2023-03-07T05:41:39.365Z,71.83
2023-03-07T05:42:39.383Z,71.83
2023-03-07T05:43:39.354Z,71.93
2023-03-07T05:44:39.038Z,71.83
2023-03-07T05:45:38.882Z,71.83
2023-03-07T05:46:39.191Z,71.72
2023-03-07T05:47:39.219Z,71.51
2023-03-07T05:48:38.731Z,71.62
2023-03-07T05:49:38.694Z,71.72
2023-03-07T05:50:40.548Z,71.51
2023-03-07T05:51:38.752Z,71.72
2023-03-07T05:52:38.408Z,71.72
2023-03-07T05:53:38.362Z,71.51
2023-03-07T05:54:40.336Z,71.62
2023-03-07T05:55:43.849Z,71.31
2023-03-07T05:56:38.413Z,71.31
2023-03-07T05:57:38.374Z,71.41
2023-03-07T05:58:38.647Z,71.62
2023-03-07T05:59:38.009Z,71.72
2023-03-07T06:00:38.326Z,71.31
2023-03-07T06:01:38.510Z,71.31
2023-03-07T06:02:38.445Z,71.10
2023-03-07T06:03:38.005Z,70.89
2023-03-07T06:04:38.853Z,71.00
2023-03-07T06:05:40.045Z,70.86
2023-03-07T06:06:38.311Z,70.54
2023-03-07T06:07:37.972Z,70.75
2023-03-07T06:08:37.846Z,70.75
2023-03-07T06:09:37.970Z,70.44
2023-03-07T06:10:37.832Z,70.65
2023-03-07T06:11:40.377Z,70.54
2023-03-07T06:12:38.866Z,70.75
2023-03-07T06:13:40.225Z,70.75
2023-03-07T06:14:39.460Z,70.75
2023-03-07T06:15:37.979Z,70.75
2023-03-07T06:16:39.840Z,70.75
2023-03-07T06:17:40.539Z,70.65
2023-03-07T06:18:39.283Z,70.65
2023-03-07T06:19:40.997Z,70.65
2023-03-07T06:20:38.958Z,70.65
2023-03-07T06:21:38.323Z,70.34
2023-03-07T06:22:37.913Z,70.34
2023-03-07T06:23:38.209Z,70.54
2023-03-07T06:24:39.387Z,70.34
2023-03-07T06:25:38.929Z,70.44
2023-03-07T06:26:37.711Z,70.44
2023-03-07T06:27:37.762Z,70.34
2023-03-07T06:28:37.657Z,70.13
2023-03-07T06:29:38.173Z,70.23
2023-03-07T06:30:38.912Z,70.13
2023-03-07T06:31:38.084Z,69.79
2023-03-07T06:32:44.318Z,70.00
2023-03-07T06:33:37.269Z,69.48
2023-03-07T06:34:37.271Z,69.58
2023-03-07T06:35:37.256Z,69.37
2023-03-07T06:36:37.277Z,69.48
2023-03-07T06:37:37.393Z,69.48
2023-03-07T06:38:37.238Z,69.58
2023-03-07T06:39:37.320Z,69.27
2023-03-07T06:40:37.189Z,69.27
2023-03-07T06:41:37.161Z,69.37
2023-03-07T06:42:37.204Z,69.34
2023-03-07T06:43:37.241Z,69.34
2023-03-07T06:44:38.279Z,69.03
2023-03-07T06:45:37.137Z,68.93
2023-03-07T06:46:37.800Z,69.03
2023-03-07T06:47:37.158Z,68.93
2023-03-07T06:48:37.091Z,68.82
2023-03-07T06:49:37.125Z,68.82
2023-03-07T06:50:37.096Z,68.82
2023-03-07T06:51:38.104Z,68.41
2023-03-07T06:52:37.151Z,68.62
2023-03-07T06:53:37.030Z,68.48
2023-03-07T06:54:37.044Z,68.59
2023-03-07T06:55:37.025Z,68.48
2023-03-07T06:56:37.008Z,68.27
2023-03-07T06:57:36.964Z,68.07
2023-03-07T06:58:36.952Z,67.96
2023-03-07T06:59:37.098Z,67.82
2023-03-07T07:00:37.002Z,67.51
2023-03-07T07:01:37.185Z,67.61
2023-03-07T07:02:37.086Z,67.82
2023-03-07T07:03:36.880Z,67.93
2023-03-07T07:04:36.912Z,67.72
2023-03-07T07:05:36.840Z,67.61
2023-03-07T07:06:36.899Z,67.61
2023-03-07T07:07:36.848Z,67.93
2023-03-07T07:08:37.008Z,67.58
2023-03-07T07:09:36.814Z,67.48
2023-03-07T07:10:36.831Z,67.38
2023-03-07T07:11:36.782Z,67.38
2023-03-07T07:12:36.841Z,67.48
2023-03-07T07:13:36.766Z,66.96
2023-03-07T07:14:36.785Z,67.07
2023-03-07T07:15:36.751Z,67.03
2023-03-07T07:16:36.766Z,66.96
2023-03-07T07:17:36.765Z,67.03
2023-03-07T07:18:36.736Z,66.72
2023-03-07T07:19:36.683Z,66.41
2023-03-07T07:20:36.741Z,66.52
2023-03-07T07:21:36.644Z,66.41
2023-03-07T07:22:36.675Z,66.38
2023-03-07T07:23:36.666Z,66.38
2023-03-07T07:24:36.634Z,66.38
2023-03-07T07:25:36.601Z,66.08
2023-03-07T07:26:36.603Z,65.97
2023-03-07T07:27:36.602Z,65.97
2023-03-07T07:28:36.596Z,65.97
2023-03-07T07:29:36.582Z,65.77
2023-03-07T07:30:36.569Z,65.73
2023-03-07T07:31:36.593Z,65.53
2023-03-07T07:32:36.763Z,65.50
2023-03-07T07:33:36.491Z,64.98
2023-03-07T07:34:36.531Z,64.77
2023-03-07T07:35:36.538Z,64.32
2023-03-07T07:36:36.507Z,64.32
2023-03-07T07:37:36.491Z,63.92
2023-03-07T07:38:36.436Z,63.92
2023-03-07T07:39:36.481Z,64.12
2023-03-07T07:40:36.400Z,64.09
2023-03-07T07:41:36.462Z,63.68
2023-03-07T07:42:36.379Z,63.57
2023-03-07T07:43:36.412Z,63.23
2023-03-07T07:44:36.380Z,62.72
2023-03-07T07:45:36.445Z,62.62
2023-03-07T07:46:36.353Z,62.69
2023-03-07T07:47:36.346Z,62.79
2023-03-07T07:48:36.310Z,62.69
2023-03-07T07:49:36.344Z,62.69
2023-03-07T07:50:36.286Z,62.55
2023-03-07T07:51:36.328Z,62.46
2023-03-07T07:52:36.270Z,62.15
2023-03-07T07:53:36.255Z,61.94
2023-03-07T07:54:36.250Z,62.04
2023-03-07T07:55:36.232Z,61.94
2023-03-07T07:56:36.210Z,61.63
2023-03-07T07:57:36.348Z,61.42
2023-03-07T07:58:36.183Z,61.60
2023-03-07T07:59:36.201Z,61.29
2023-03-07T08:00:38.289Z,61.19
2023-03-07T08:01:36.157Z,61.42
2023-03-07T08:02:36.167Z,61.80
2023-03-07T08:03:36.134Z,61.52
2023-03-07T08:04:36.117Z,61.32
2023-03-07T08:05:36.131Z,61.22
2023-03-07T08:06:36.364Z,60.98
2023-03-07T08:07:36.140Z,60.64
2023-03-07T08:08:36.053Z,59.77
2023-03-07T08:09:36.060Z,58.40
2023-03-07T08:10:36.114Z,57.65
2023-03-07T08:11:36.053Z,57.44
2023-03-07T08:12:36.082Z,56.98
2023-03-07T08:13:35.999Z,56.57
2023-03-07T08:14:35.958Z,56.13
2023-03-07T08:15:35.973Z,55.82
2023-03-07T08:16:35.941Z,55.74
2023-03-07T08:17:35.966Z,56.26
2023-03-07T08:18:35.941Z,56.38
2023-03-07T08:19:35.930Z,56.80
2023-03-07T08:20:35.886Z,57.34
2023-03-07T08:21:35.907Z,57.98
2023-03-07T08:22:35.887Z,58.09
2023-03-07T08:23:35.964Z,58.09
2023-03-07T08:24:40.951Z,58.32
2023-03-07T08:25:36.879Z,58.53
2023-03-07T08:26:35.829Z,58.70
2023-03-07T08:27:35.827Z,58.60
2023-03-07T08:28:35.789Z,58.63
2023-03-07T08:29:35.848Z,58.32
2023-03-07T08:30:35.771Z,58.63
2023-03-07T08:31:35.817Z,58.73
2023-03-07T08:32:35.768Z,58.91
2023-03-07T08:33:35.752Z,58.29
2023-03-07T08:34:35.730Z,58.22
2023-03-07T08:35:35.825Z,58.84
2023-03-07T08:36:35.687Z,58.63
2023-03-07T08:37:35.708Z,58.84
2023-03-07T08:38:35.673Z,58.84
2023-03-07T08:39:35.656Z,59.17
2023-03-07T08:40:35.703Z,59.66
2023-03-07T08:41:35.686Z,59.66
2023-03-07T08:42:35.684Z,59.14
2023-03-07T08:43:35.616Z,59.04
2023-03-07T08:44:35.625Z,59.14
2023-03-07T08:45:35.593Z,58.60
2023-03-07T08:46:35.663Z,58.40
2023-03-07T08:47:35.569Z,58.09
2023-03-07T08:48:35.583Z,58.19
2023-03-07T08:49:35.569Z,58.26
2023-03-07T08:50:35.545Z,57.96
2023-03-07T08:51:35.551Z,57.86
2023-03-07T08:52:35.478Z,58.06
2023-03-07T08:53:35.492Z,58.03
2023-03-07T08:54:35.488Z,57.44
2023-03-07T08:55:35.528Z,57.24
2023-03-07T08:56:35.472Z,57.34
2023-03-07T08:57:35.432Z,57.68
2023-03-07T08:58:35.402Z,57.88
2023-03-07T08:59:35.454Z,58.19
2023-03-07T09:00:35.458Z,58.19
2023-03-07T09:01:35.434Z,57.88
2023-03-07T09:02:35.348Z,57.50
2023-03-07T09:03:35.353Z,57.91
2023-03-07T09:04:35.444Z,58.11
2023-03-07T09:05:35.351Z,58.09
2023-03-07T09:06:35.366Z,57.78
2023-03-07T09:07:35.323Z,57.68
2023-03-07T09:08:35.290Z,57.78
2023-03-07T09:09:35.273Z,57.78
2023-03-07T09:10:35.244Z,57.44
2023-03-07T09:11:35.249Z,57.34
2023-03-07T09:12:35.367Z,57.10
2023-03-07T09:13:43.078Z,56.41
2023-03-07T09:14:36.200Z,56.52
2023-03-07T09:15:35.208Z,57.16
2023-03-07T09:16:35.245Z,57.34
2023-03-07T09:17:35.168Z,57.34
2023-03-07T09:18:35.264Z,57.03
2023-03-07T09:19:35.179Z,57.03
2023-03-07T09:20:35.184Z,57.03
2023-03-07T09:21:35.118Z,56.62
2023-03-07T09:22:35.095Z,56.62
2023-03-07T09:23:35.116Z,56.62
2023-03-07T09:24:35.099Z,56.52
2023-03-07T09:25:35.099Z,56.62
2023-03-07T09:26:35.060Z,56.62
2023-03-07T09:27:35.076Z,56.18
2023-03-07T09:28:35.037Z,56.18
2023-03-07T09:29:35.071Z,55.98
2023-03-07T09:30:35.169Z,56.38
2023-03-07T09:31:35.059Z,56.52
2023-03-07T09:32:35.043Z,56.80
2023-03-07T09:33:35.019Z,56.90
2023-03-07T09:34:34.946Z,56.70
2023-03-07T09:35:35.030Z,56.77
2023-03-07T09:36:34.927Z,56.15
2023-03-07T09:37:34.967Z,55.85
2023-03-07T09:38:34.901Z,55.64
2023-03-07T09:39:34.909Z,55.02
2023-03-07T09:40:34.909Z,55.13
2023-03-07T09:41:34.877Z,55.54
2023-03-07T09:42:34.893Z,54.72
2023-03-07T09:43:34.848Z,54.92
2023-03-07T09:44:34.828Z,54.82
2023-03-07T09:45:36.590Z,55.13
2023-03-07T09:46:34.821Z,54.82
2023-03-07T09:47:34.810Z,54.64
2023-03-07T09:48:34.768Z,53.92
2023-03-07T09:49:34.835Z,53.41
2023-03-07T09:50:34.907Z,54.25
2023-03-07T09:51:34.772Z,54.25
2023-03-07T09:52:34.714Z,54.15
2023-03-07T09:53:34.737Z,54.35
2023-03-07T09:54:34.703Z,54.46
2023-03-07T09:55:34.716Z,54.66
2023-03-07T09:56:34.717Z,54.66
2023-03-07T09:57:34.676Z,54.87
2023-03-07T09:58:34.649Z,54.58
2023-03-07T09:59:34.728Z,54.58
2023-03-07T10:00:34.680Z,54.58
2023-03-07T10:01:34.635Z,54.82
2023-03-07T10:02:34.596Z,54.94
2023-03-07T10:03:34.607Z,55.36
2023-03-07T10:04:34.613Z,55.66
2023-03-07T10:05:34.613Z,55.87
2023-03-07T10:06:34.570Z,55.87
2023-03-07T10:07:34.550Z,55.80
2023-03-07T10:08:34.527Z,56.10
2023-03-07T10:09:34.512Z,56.21
2023-03-07T10:10:34.543Z,56.13
2023-03-07T10:11:34.521Z,56.23
2023-03-07T10:12:34.458Z,56.65
2023-03-07T10:13:34.457Z,56.65
2023-03-07T10:14:34.449Z,56.75
2023-03-07T10:15:34.495Z,56.85
2023-03-07T10:16:34.486Z,56.96
2023-03-07T10:17:34.419Z,57.26
2023-03-07T10:18:34.411Z,56.65
2023-03-07T10:19:34.381Z,56.23
2023-03-07T10:20:34.364Z,56.34
2023-03-07T10:21:34.372Z,56.85
2023-03-07T10:22:34.385Z,56.85
2023-03-07T10:23:34.346Z,56.85
2023-03-07T10:24:34.318Z,57.03
2023-03-07T10:25:34.395Z,56.93
2023-03-07T10:26:34.298Z,56.93
2023-03-07T10:27:34.352Z,57.03
2023-03-07T10:28:34.260Z,57.24
2023-03-07T10:29:34.258Z,57.34
2023-03-07T10:30:34.260Z,57.55
2023-03-07T10:31:34.294Z,57.65
2023-03-07T10:32:34.253Z,57.65
2023-03-07T10:33:34.189Z,57.55
2023-03-07T10:34:34.194Z,57.24
2023-03-07T10:35:34.197Z,57.34
2023-03-07T10:36:34.166Z,57.45
2023-03-07T10:37:34.133Z,57.65
2023-03-07T10:38:34.123Z,57.96
2023-03-07T10:39:34.121Z,58.17
2023-03-07T10:40:34.165Z,58.17
2023-03-07T10:41:34.121Z,57.55
2023-03-07T10:42:34.095Z,57.34
2023-03-07T10:43:34.052Z,56.73
2023-03-07T10:44:34.051Z,56.52
2023-03-07T10:45:34.041Z,56.75
2023-03-07T10:46:35.306Z,57.17
2023-03-07T10:47:34.002Z,56.85
2023-03-07T10:48:34.021Z,56.96
2023-03-07T10:49:33.997Z,56.96
2023-03-07T10:50:33.981Z,56.85
2023-03-07T10:51:33.949Z,56.85
2023-03-07T10:52:34.026Z,56.75
2023-03-07T10:53:33.946Z,57.17
2023-03-07T10:54:33.934Z,56.75
2023-03-07T10:55:33.909Z,56.75
2023-03-07T10:56:33.984Z,56.75
2023-03-07T10:57:33.890Z,56.54
2023-03-07T10:58:33.995Z,55.72
2023-03-07T10:59:33.882Z,56.03
2023-03-07T11:00:33.842Z,55.82
2023-03-07T11:01:33.872Z,56.03
2023-03-07T11:02:33.813Z,55.62
2023-03-07T11:03:46.034Z,55.49
2023-03-07T11:04:34.856Z,55.28
2023-03-07T11:05:33.812Z,55.28
2023-03-07T11:06:33.899Z,55.28
2023-03-07T11:07:33.748Z,54.86
2023-03-07T11:08:33.755Z,54.86
2023-03-07T11:09:33.713Z,54.74
2023-03-07T11:10:33.887Z,54.74
2023-03-07T11:11:33.714Z,54.84
2023-03-07T11:12:33.684Z,54.74
2023-03-07T11:13:33.660Z,53.94
2023-03-07T11:14:33.662Z,53.63
2023-03-07T11:15:33.687Z,53.42
2023-03-07T11:16:40.710Z,53.53
2023-03-07T11:17:33.632Z,54.04
2023-03-07T11:18:33.599Z,53.83
2023-03-07T11:19:33.603Z,54.04
2023-03-07T11:20:33.623Z,54.14
2023-03-07T11:21:33.546Z,54.04
2023-03-07T11:22:33.578Z,54.02
2023-03-07T11:23:33.542Z,53.40
2023-03-07T11:24:33.544Z,53.30
2023-03-07T11:25:33.522Z,53.19
2023-03-07T11:26:33.600Z,53.32
2023-03-07T11:27:33.467Z,53.74
2023-03-07T11:28:33.634Z,53.81
2023-03-07T11:29:33.477Z,53.81
2023-03-07T11:30:33.538Z,53.32
2023-03-07T11:31:33.431Z,52.81
2023-03-07T11:32:33.518Z,52.93
2023-03-07T11:33:33.396Z,53.55
2023-03-07T11:34:33.393Z,53.96
2023-03-07T11:35:33.383Z,54.06
2023-03-07T11:36:33.407Z,54.38
2023-03-07T11:37:33.343Z,54.38
2023-03-07T11:38:33.403Z,54.48
2023-03-07T11:39:33.324Z,54.38
2023-03-07T11:40:33.325Z,54.38
2023-03-07T11:41:33.294Z,54.69
2023-03-07T11:42:33.292Z,54.79
2023-03-07T11:43:33.263Z,54.90
2023-03-07T11:44:33.333Z,54.90
2023-03-07T11:45:33.250Z,54.79
2023-03-07T11:46:33.304Z,54.38
2023-03-07T11:47:33.247Z,54.38
2023-03-07T11:48:33.212Z,54.38
2023-03-07T11:49:33.182Z,54.46
2023-03-07T11:50:33.212Z,54.25
2023-03-07T11:51:33.178Z,54.27
2023-03-07T11:52:33.172Z,54.25
2023-03-07T11:53:33.131Z,54.14
2023-03-07T11:54:33.132Z,53.53
2023-03-07T11:55:35.514Z,53.63
2023-03-07T11:56:33.111Z,53.74
2023-03-07T11:57:33.082Z,53.94
2023-03-07T11:58:33.110Z,54.14
2023-03-07T11:59:33.053Z,53.63
2023-03-07T12:00:33.264Z,53.32
2023-03-07T12:01:33.044Z,53.01
2023-03-07T12:02:33.062Z,52.81
2023-03-07T12:03:33.140Z,53.01
2023-03-07T12:04:33.026Z,52.81
2023-03-07T12:05:33.345Z,52.83
2023-03-07T12:06:32.986Z,52.62
2023-03-07T12:07:32.953Z,53.03
2023-03-07T12:08:33.015Z,52.83
2023-03-07T12:09:32.943Z,53.03
2023-03-07T12:10:32.983Z,52.83
2023-03-07T12:11:32.905Z,53.14
2023-03-07T12:12:32.910Z,53.24
2023-03-07T12:13:32.882Z,53.14
2023-03-07T12:14:32.881Z,52.91
2023-03-07T12:15:32.860Z,53.01
2023-03-07T12:16:32.938Z,53.01
2023-03-07T12:17:32.837Z,53.01
2023-03-07T12:18:32.838Z,53.11
2023-03-07T12:19:32.914Z,53.22
2023-03-07T12:20:32.807Z,53.22
2023-03-07T12:21:32.772Z,53.32
2023-03-07T12:22:32.812Z,53.11
2023-03-07T12:23:32.744Z,53.22
2023-03-07T12:24:32.764Z,53.01
2023-03-07T12:25:32.722Z,53.11
2023-03-07T12:26:32.728Z,52.58
2023-03-07T12:27:32.720Z,52.47
2023-03-07T12:28:32.792Z,52.16
2023-03-07T12:29:32.706Z,52.37
2023-03-07T12:30:32.739Z,52.34
2023-03-07T12:31:32.739Z,52.03
2023-03-07T12:32:32.813Z,51.73
2023-03-07T12:33:32.678Z,51.73
2023-03-07T12:34:32.643Z,51.83
2023-03-07T12:35:32.643Z,52.03
2023-03-07T12:36:32.654Z,51.83
2023-03-07T12:37:32.580Z,51.81
2023-03-07T12:38:33.828Z,51.47
2023-03-07T12:39:32.553Z,51.06
2023-03-07T12:40:32.610Z,50.83
2023-03-07T12:41:32.522Z,50.52
2023-03-07T12:42:32.522Z,50.52
2023-03-07T12:43:32.487Z,50.09
2023-03-07T12:44:32.498Z,50.06
2023-03-07T12:45:32.637Z,49.44
2023-03-07T12:46:32.569Z,48.93
2023-03-07T12:47:32.449Z,49.16
2023-03-07T12:48:32.458Z,49.06
2023-03-07T12:49:40.987Z,49.24
2023-03-07T12:50:33.517Z,49.35
2023-03-07T12:51:32.400Z,50.06
2023-03-07T12:52:32.477Z,49.63
2023-03-07T12:53:32.388Z,49.30
2023-03-07T12:54:32.416Z,49.07
2023-03-07T12:55:32.349Z,48.56
2023-03-07T12:56:32.438Z,48.89
2023-03-07T12:57:32.349Z,49.09
2023-03-07T12:58:32.343Z,49.63
2023-03-07T12:59:32.297Z,49.71
2023-03-07T13:00:32.426Z,49.71
2023-03-07T13:01:32.366Z,49.38
2023-03-07T13:02:32.307Z,48.86
2023-03-07T13:03:32.247Z,48.86
2023-03-07T13:04:32.367Z,48.79
2023-03-07T13:05:32.234Z,49.22
2023-03-07T13:06:32.217Z,49.43
2023-03-07T13:07:32.186Z,49.24
2023-03-07T13:08:32.236Z,49.14
2023-03-07T13:09:32.157Z,49.04
2023-03-07T13:10:32.159Z,48.60
2023-03-07T13:11:32.168Z,48.39
2023-03-07T13:12:32.138Z,48.60
2023-03-07T13:13:32.135Z,48.50
2023-03-07T13:14:32.109Z,47.67
2023-03-07T13:15:32.073Z,47.47
2023-03-07T13:16:32.110Z,47.67
2023-03-07T13:17:32.097Z,47.37
2023-03-07T13:18:32.125Z,47.37
2023-03-07T13:19:32.028Z,47.67
2023-03-07T13:20:32.042Z,47.78
2023-03-07T13:21:32.064Z,47.78
2023-03-07T13:22:32.010Z,47.78
2023-03-07T13:23:32.051Z,47.47
2023-03-07T13:24:32.155Z,47.88
2023-03-07T13:25:31.964Z,48.29
2023-03-07T13:26:31.977Z,48.71
2023-03-07T13:27:31.931Z,48.39
2023-03-07T13:28:31.971Z,48.63
2023-03-07T13:29:31.942Z,49.24
2023-03-07T13:30:31.961Z,49.44
2023-03-07T13:31:31.923Z,49.04
2023-03-07T13:32:31.904Z,49.04
2023-03-07T13:33:31.850Z,49.24
2023-03-07T13:34:31.860Z,48.85
2023-03-07T13:35:31.883Z,49.37
2023-03-07T13:36:31.858Z,49.57
2023-03-07T13:37:31.839Z,49.47
2023-03-07T13:38:31.810Z,49.44
2023-03-07T13:39:31.778Z,49.14
2023-03-07T13:40:31.819Z,49.04
2023-03-07T13:41:31.742Z,49.04
2023-03-07T13:42:31.840Z,49.04
2023-03-07T13:43:31.731Z,49.35
2023-03-07T13:44:31.727Z,48.93
2023-03-07T13:45:31.739Z,49.14
2023-03-07T13:46:31.793Z,49.35
2023-03-07T13:47:31.683Z,49.35
2023-03-07T13:48:31.685Z,48.60
2023-03-07T13:49:31.688Z,48.21
2023-03-07T13:50:31.711Z,48.52
2023-03-07T13:51:31.777Z,48.11
2023-03-07T13:52:31.626Z,48.32
2023-03-07T13:53:31.614Z,48.75
2023-03-07T13:54:31.604Z,48.52
2023-03-07T13:55:31.631Z,48.83
2023-03-07T13:56:31.576Z,48.83
2023-03-07T13:57:31.547Z,48.91
2023-03-07T13:58:31.564Z,48.79
2023-03-07T13:59:31.516Z,49.07
2023-03-07T14:00:31.525Z,49.05
2023-03-07T14:01:31.611Z,48.21
2023-03-07T14:02:31.493Z,48.31
2023-03-07T14:03:31.487Z,48.74
2023-03-07T14:04:39.882Z,48.74
2023-03-07T14:05:32.481Z,47.59
2023-03-07T14:06:31.442Z,47.49
2023-03-07T14:07:31.490Z,47.49
2023-03-07T14:08:31.414Z,47.26
2023-03-07T14:09:31.411Z,46.56
2023-03-07T14:10:31.426Z,46.97
2023-03-07T14:11:31.374Z,47.28
2023-03-07T14:12:31.383Z,47.56
2023-03-07T14:13:31.564Z,46.95
2023-03-07T14:14:31.344Z,47.16
2023-03-07T14:15:31.368Z,46.95
2023-03-07T14:16:31.335Z,47.08
2023-03-07T14:17:31.286Z,47.26
2023-03-07T14:18:31.300Z,47.46
2023-03-07T14:19:31.384Z,46.95
2023-03-07T14:20:31.306Z,47.18
2023-03-07T14:21:31.252Z,47.38
2023-03-07T14:22:31.237Z,47.69
2023-03-07T14:23:31.225Z,47.59
2023-03-07T14:24:31.228Z,47.30
2023-03-07T14:25:31.201Z,47.81
2023-03-07T14:26:31.294Z,47.84
2023-03-07T14:27:31.170Z,47.53
2023-03-07T14:28:31.182Z,47.94
2023-03-07T14:29:31.144Z,48.38
2023-03-07T14:30:31.168Z,48.27
2023-03-07T14:31:31.161Z,48.39
2023-03-07T14:32:31.329Z,48.71
2023-03-07T14:33:31.085Z,49.04
2023-03-07T14:34:33.291Z,49.04
2023-03-07T14:35:31.071Z,49.06
2023-03-07T14:36:31.068Z,49.18
2023-03-07T14:37:31.040Z,49.60
2023-03-07T14:38:31.116Z,49.93
2023-03-07T14:39:31.011Z,50.24
2023-03-07T14:40:31.060Z,50.44
2023-03-07T14:41:30.975Z,50.85
2023-03-07T14:42:30.990Z,51.06
2023-03-07T14:43:30.992Z,50.85
2023-03-07T14:44:30.943Z,50.98
2023-03-07T14:45:31.020Z,51.18
2023-03-07T14:46:31.006Z,51.29
2023-03-07T14:47:30.914Z,51.70
2023-03-07T14:48:30.892Z,51.70
2023-03-07T14:49:30.910Z,51.68
2023-03-07T14:50:30.852Z,51.16
2023-03-07T14:51:30.924Z,51.47
2023-03-07T14:52:31.792Z,51.26
2023-03-07T14:53:30.847Z,51.37
2023-03-07T14:54:30.813Z,51.04
2023-03-07T14:55:30.874Z,51.04
2023-03-07T14:56:30.813Z,50.62
2023-03-07T14:57:30.776Z,50.40
2023-03-07T14:58:30.823Z,50.19
2023-03-07T14:59:30.766Z,50.19
2023-03-07T15:00:30.727Z,50.37
2023-03-07T15:01:30.805Z,50.14
2023-03-07T15:02:30.689Z,49.84
2023-03-07T15:03:30.705Z,49.40
2023-03-07T15:04:30.742Z,48.79
2023-03-07T15:05:30.679Z,48.58
2023-03-07T15:06:30.645Z,48.66
2023-03-07T15:07:30.699Z,48.56
2023-03-07T15:08:30.646Z,48.33
2023-03-07T15:09:30.640Z,48.02
2023-03-07T15:10:30.588Z,47.69
2023-03-07T15:11:30.598Z,47.81
2023-03-07T15:12:30.568Z,47.81
2023-03-07T15:13:31.274Z,47.89
2023-03-07T15:14:30.545Z,47.59
2023-03-07T15:15:30.548Z,47.69
2023-03-07T15:16:30.663Z,47.49
2023-03-07T15:17:30.585Z,47.59
2023-03-07T15:18:30.511Z,47.69
2023-03-07T15:19:30.567Z,47.71
2023-03-07T15:20:30.488Z,47.92
2023-03-07T15:21:30.469Z,48.04
2023-03-07T15:22:30.507Z,48.56
2023-03-07T15:23:30.450Z,48.58
2023-03-07T15:24:30.416Z,48.91
2023-03-07T15:25:30.511Z,49.11
2023-03-07T15:26:30.396Z,49.32
2023-03-07T15:27:30.394Z,49.63
2023-03-07T15:28:30.589Z,49.86
2023-03-07T15:29:30.457Z,49.86
2023-03-07T15:30:30.355Z,50.06
2023-03-07T15:31:30.418Z,50.16
2023-03-07T15:32:30.430Z,50.58
2023-03-07T15:33:30.369Z,50.27
2023-03-07T15:34:30.320Z,50.06
2023-03-07T15:35:30.617Z,50.27
2023-03-07T15:36:30.333Z,50.16
2023-03-07T15:37:30.324Z,49.96
2023-03-07T15:38:30.270Z,49.76
2023-03-07T15:39:30.272Z,50.16
2023-03-07T15:40:30.292Z,50.68
2023-03-07T15:41:30.235Z,50.68
2023-03-07T15:42:30.210Z,50.58
2023-03-07T15:43:30.199Z,50.60
2023-03-07T15:44:30.173Z,50.91
2023-03-07T15:45:30.267Z,51.22
2023-03-07T15:46:30.142Z,51.24
2023-03-07T15:47:30.142Z,51.34
2023-03-07T15:48:30.143Z,51.65
2023-03-07T15:49:30.118Z,51.47
2023-03-07T15:50:30.108Z,51.89
2023-03-07T15:51:30.142Z,52.09
2023-03-07T15:52:30.058Z,51.78
2023-03-07T15:53:30.073Z,52.09
2023-03-07T15:54:30.035Z,51.89
2023-03-07T15:55:30.097Z,51.98
2023-03-07T15:56:30.005Z,51.98
2023-03-07T15:57:30.011Z,51.76
2023-03-07T15:58:29.976Z,51.42
2023-03-07T15:59:29.995Z,51.32
2023-03-07T16:00:29.960Z,50.91
2023-03-07T16:01:30.081Z,50.68
2023-03-07T16:02:30.049Z,50.89
2023-03-07T16:03:30.050Z,50.89
2023-03-07T16:04:29.913Z,50.78
2023-03-07T16:05:29.940Z,50.89
2023-03-07T16:06:29.877Z,50.37
2023-03-07T16:07:29.933Z,50.78
2023-03-07T16:08:29.869Z,50.48
2023-03-07T16:09:29.892Z,50.29
2023-03-07T16:10:29.838Z,50.70
2023-03-07T16:11:29.834Z,50.70
2023-03-07T16:12:29.805Z,50.81
2023-03-07T16:13:29.890Z,51.04
2023-03-07T16:14:29.794Z,51.04
2023-03-07T16:15:29.792Z,51.34
2023-03-07T16:16:29.793Z,51.37
2023-03-07T16:17:29.870Z,51.78
2023-03-07T16:18:29.960Z,51.68
2023-03-07T16:19:29.829Z,51.68
2023-03-07T16:20:29.772Z,51.57
2023-03-07T16:21:29.746Z,51.68
2023-03-07T16:22:29.671Z,51.81
2023-03-07T16:23:29.671Z,52.01
2023-03-07T16:24:29.662Z,52.11
2023-03-07T16:25:29.656Z,52.53
2023-03-07T16:26:29.714Z,52.63
2023-03-07T16:27:29.635Z,52.40
2023-03-07T16:28:29.592Z,52.19
2023-03-07T16:29:29.589Z,52.17
2023-03-07T16:30:29.590Z,52.06
2023-03-07T16:31:29.647Z,52.06
2023-03-07T16:32:29.685Z,52.37
2023-03-07T16:33:29.557Z,52.27
2023-03-07T16:34:29.601Z,52.06
2023-03-07T16:35:29.608Z,52.06
2023-03-07T16:36:29.493Z,52.29
2023-03-07T16:37:29.625Z,52.50
2023-03-07T16:38:29.620Z,52.91
2023-03-07T16:39:29.460Z,52.81
2023-03-07T16:40:29.455Z,53.02
2023-03-07T16:41:29.458Z,53.12
2023-03-07T16:42:29.420Z,53.14
2023-03-07T16:43:29.437Z,53.04
2023-03-07T16:44:29.548Z,53.04
2023-03-07T16:45:29.486Z,53.35
2023-03-07T16:46:29.472Z,53.35
2023-03-07T16:47:29.562Z,53.35
2023-03-07T16:48:29.506Z,53.38
2023-03-07T16:49:29.389Z,53.48
2023-03-07T16:50:29.500Z,53.68
2023-03-07T16:51:29.309Z,53.99
2023-03-07T16:52:29.290Z,53.99
2023-03-07T16:53:29.290Z,54.02
2023-03-07T16:54:29.258Z,54.33
2023-03-07T16:55:29.356Z,54.43
2023-03-07T16:56:29.337Z,54.46
2023-03-07T16:57:29.227Z,54.56
2023-03-07T16:58:29.188Z,54.86
2023-03-07T16:59:29.246Z,55.18
2023-03-07T17:00:29.275Z,55.30
2023-03-07T17:01:29.239Z,55.41
2023-03-07T17:02:29.168Z,55.41
2023-03-07T17:03:29.159Z,55.51
2023-03-07T17:04:29.169Z,55.62
2023-03-07T17:05:29.161Z,55.93
2023-03-07T17:06:38.867Z,56.03
2023-03-07T17:07:30.157Z,56.23
2023-03-07T17:08:29.075Z,56.46
2023-03-07T17:09:29.112Z,56.46
2023-03-07T17:10:29.052Z,56.67
2023-03-07T17:11:29.160Z,56.77
2023-03-07T17:12:29.061Z,56.98
2023-03-07T17:13:29.223Z,56.98
2023-03-07T17:14:29.012Z,57.21
2023-03-07T17:15:29.026Z,57.11
2023-03-07T17:16:36.080Z,57.11
2023-03-07T17:17:29.095Z,57.21
2023-03-07T17:18:28.957Z,57.21
2023-03-07T17:19:29.651Z,57.32
2023-03-07T17:20:28.910Z,57.32
2023-03-07T17:21:28.928Z,57.53
2023-03-07T17:22:36.423Z,57.53
2023-03-07T17:23:36.405Z,57.63
2023-03-07T17:24:36.390Z,57.63
2023-03-07T17:25:36.380Z,57.84
2023-03-07T17:26:35.920Z,58.07
2023-03-07T17:27:36.398Z,58.28
2023-03-07T17:28:38.502Z,58.17
2023-03-07T17:29:28.811Z,58.17
2023-03-07T17:30:28.812Z,58.28
2023-03-07T17:31:28.889Z,58.38
2023-03-07T17:32:28.786Z,58.51
2023-03-07T17:33:28.771Z,58.72
2023-03-07T17:34:28.735Z,58.72
2023-03-07T17:35:28.801Z,58.82
2023-03-07T17:36:28.727Z,58.82
2023-03-07T17:37:28.711Z,59.03
2023-03-07T17:38:28.723Z,59.16
2023-03-07T17:39:28.805Z,59.26
2023-03-07T17:40:28.702Z,59.26
2023-03-07T17:41:28.672Z,59.16
2023-03-07T17:42:28.654Z,59.36
2023-03-07T17:43:28.647Z,59.36
2023-03-07T17:44:28.619Z,59.26
2023-03-07T17:45:28.615Z,59.36
2023-03-07T17:46:28.673Z,59.36
2023-03-07T17:47:28.589Z,59.57
2023-03-07T17:48:28.556Z,59.80
2023-03-07T17:49:28.579Z,59.91
2023-03-07T17:50:28.545Z,60.01
2023-03-07T17:51:28.571Z,60.11
2023-03-07T17:52:28.610Z,60.32